sensor_id;sensor_type;location;lat;lon;timestamp;temperature;humidity
38090;DHT22;23904;52.322;10.232;2024-02-23T00:02:15;9.50;99.90
38090;DHT22;23904;52.322;10.232;2024-02-23T00:04:40;9.50;99.90
38090;DHT22;23904;52.322;10.232;2024-02-23T00:07:07;9.40;99.90
38090;DHT22;23904;52.322;10.232;2024-02-23T00:09:33;9.40;99.90
38090;DHT22;23904;52.322;10.232;2024-02-23T00:11:59;9.30;99.90
38090;DHT22;23904;52.322;10.232;2024-02-23T00:14:24;9.40;99.90
38090;DHT22;23904;52.322;10.232;2024-02-23T00:16:50;9.40;99.90
38090;DHT22;23904;52.322;10.232;2024-02-23T00:19:15;9.40;99.90
38090;DHT22;23904;52.322;10.232;2024-02-23T00:21:43;9.50;99.90
38090;DHT22;23904;52.322;10.232;2024-02-23T00:24:13;9.50;99.90
38090;DHT22;23904;52.322;10.232;2024-02-23T00:26:38;9.40;99.90
38090;DHT22;23904;52.322;10.232;2024-02-23T00:29:04;9.40;99.90
38090;DHT22;23904;52.322;10.232;2024-02-23T00:31:29;9.40;99.90
38090;DHT22;23904;52.322;10.232;2024-02-23T00:33:55;9.30;99.90
38090;DHT22;23904;52.322;10.232;2024-02-23T00:36:20;9.30;99.90
38090;DHT22;23904;52.322;10.232;2024-02-23T00:38:46;9.30;99.90
38090;DHT22;23904;52.322;10.232;2024-02-23T00:41:11;9.20;99.90
38090;DHT22;23904;52.322;10.232;2024-02-23T00:43:38;9.10;99.90
38090;DHT22;23904;52.322;10.232;2024-02-23T00:46:04;9.10;99.90
38090;DHT22;23904;52.322;10.232;2024-02-23T00:48:30;9.10;99.90
38090;DHT22;23904;52.322;10.232;2024-02-23T00:50:56;9.10;99.90
38090;DHT22;23904;52.322;10.232;2024-02-23T00:53:21;9.10;99.90
38090;DHT22;23904;52.322;10.232;2024-02-23T00:55:47;9.20;99.90
38090;DHT22;23904;52.322;10.232;2024-02-23T00:58:12;9.30;99.90
38090;DHT22;23904;52.322;10.232;2024-02-23T01:00:38;9.40;99.90
38090;DHT22;23904;52.322;10.232;2024-02-23T01:03:04;9.30;99.90
38090;DHT22;23904;52.322;10.232;2024-02-23T01:05:30;9.40;99.90
38090;DHT22;23904;52.322;10.232;2024-02-23T01:07:56;9.40;99.90
38090;DHT22;23904;52.322;10.232;2024-02-23T01:10:21;9.40;99.90
38090;DHT22;23904;52.322;10.232;2024-02-23T01:12:47;9.30;99.90
38090;DHT22;23904;52.322;10.232;2024-02-23T01:15:12;9.30;99.90
38090;DHT22;23904;52.322;10.232;2024-02-23T01:17:38;9.20;99.90
38090;DHT22;23904;52.322;10.232;2024-02-23T01:20:04;9.20;99.90
38090;DHT22;23904;52.322;10.232;2024-02-23T01:22:30;9.10;99.90
38090;DHT22;23904;52.322;10.232;2024-02-23T01:24:55;9.10;99.90
38090;DHT22;23904;52.322;10.232;2024-02-23T01:27:21;9.20;99.90
38090;DHT22;23904;52.322;10.232;2024-02-23T01:29:47;9.20;99.90
38090;DHT22;23904;52.322;10.232;2024-02-23T01:32:13;9.20;99.90
38090;DHT22;23904;52.322;10.232;2024-02-23T01:34:39;9.10;99.90
38090;DHT22;23904;52.322;10.232;2024-02-23T01:37:04;9.10;99.90
38090;DHT22;23904;52.322;10.232;2024-02-23T01:39:30;9.10;99.90
38090;DHT22;23904;52.322;10.232;2024-02-23T01:41:55;9.00;99.90
38090;DHT22;23904;52.322;10.232;2024-02-23T01:44:21;9.00;99.90
38090;DHT22;23904;52.322;10.232;2024-02-23T01:46:47;9.00;99.90
38090;DHT22;23904;52.322;10.232;2024-02-23T01:49:13;8.90;99.90
38090;DHT22;23904;52.322;10.232;2024-02-23T01:51:39;8.90;99.90
38090;DHT22;23904;52.322;10.232;2024-02-23T01:54:05;8.80;99.90
38090;DHT22;23904;52.322;10.232;2024-02-23T01:56:32;8.70;99.90
38090;DHT22;23904;52.322;10.232;2024-02-23T01:58:58;8.60;99.90
38090;DHT22;23904;52.322;10.232;2024-02-23T02:01:25;8.40;99.90
38090;DHT22;23904;52.322;10.232;2024-02-23T02:03:51;8.40;99.90
38090;DHT22;23904;52.322;10.232;2024-02-23T02:06:17;8.40;99.90
38090;DHT22;23904;52.322;10.232;2024-02-23T02:08:43;8.40;99.90
38090;DHT22;23904;52.322;10.232;2024-02-23T02:11:08;8.40;99.90
38090;DHT22;23904;52.322;10.232;2024-02-23T02:13:34;8.20;99.90
38090;DHT22;23904;52.322;10.232;2024-02-23T02:16:00;8.00;99.90
38090;DHT22;23904;52.322;10.232;2024-02-23T02:18:27;7.90;99.90
38090;DHT22;23904;52.322;10.232;2024-02-23T02:20:56;7.80;99.90
38090;DHT22;23904;52.322;10.232;2024-02-23T02:23:23;7.70;99.90
38090;DHT22;23904;52.322;10.232;2024-02-23T02:25:55;7.60;99.90
38090;DHT22;23904;52.322;10.232;2024-02-23T02:28:22;7.50;99.90
38090;DHT22;23904;52.322;10.232;2024-02-23T02:30:52;7.40;99.90
38090;DHT22;23904;52.322;10.232;2024-02-23T02:33:21;7.40;99.90
38090;DHT22;23904;52.322;10.232;2024-02-23T02:35:47;7.30;99.90
38090;DHT22;23904;52.322;10.232;2024-02-23T02:38:13;7.20;99.90
38090;DHT22;23904;52.322;10.232;2024-02-23T02:40:39;7.20;99.90
38090;DHT22;23904;52.322;10.232;2024-02-23T02:43:04;7.20;99.90
38090;DHT22;23904;52.322;10.232;2024-02-23T02:45:31;7.20;99.90
38090;DHT22;23904;52.322;10.232;2024-02-23T02:47:56;7.10;99.90
38090;DHT22;23904;52.322;10.232;2024-02-23T02:50:22;7.10;99.90
38090;DHT22;23904;52.322;10.232;2024-02-23T02:52:47;7.10;99.90
38090;DHT22;23904;52.322;10.232;2024-02-23T02:55:13;7.10;99.90
38090;DHT22;23904;52.322;10.232;2024-02-23T02:57:39;7.10;99.90
38090;DHT22;23904;52.322;10.232;2024-02-23T03:00:05;7.00;99.90
38090;DHT22;23904;52.322;10.232;2024-02-23T03:02:32;7.00;99.90
38090;DHT22;23904;52.322;10.232;2024-02-23T03:04:57;6.90;99.90
38090;DHT22;23904;52.322;10.232;2024-02-23T03:07:23;6.90;99.90
38090;DHT22;23904;52.322;10.232;2024-02-23T03:09:48;6.90;99.90
38090;DHT22;23904;52.322;10.232;2024-02-23T03:12:16;6.80;99.90
38090;DHT22;23904;52.322;10.232;2024-02-23T03:14:43;6.80;99.90
38090;DHT22;23904;52.322;10.232;2024-02-23T03:17:09;6.80;99.90
38090;DHT22;23904;52.322;10.232;2024-02-23T03:19:35;6.80;99.90
38090;DHT22;23904;52.322;10.232;2024-02-23T03:22:01;6.80;99.90
38090;DHT22;23904;52.322;10.232;2024-02-23T03:24:27;6.70;99.90
38090;DHT22;23904;52.322;10.232;2024-02-23T03:26:52;6.80;99.90
38090;DHT22;23904;52.322;10.232;2024-02-23T03:29:18;6.70;99.90
38090;DHT22;23904;52.322;10.232;2024-02-23T03:31:43;6.70;99.90
38090;DHT22;23904;52.322;10.232;2024-02-23T03:34:09;6.80;99.90
38090;DHT22;23904;52.322;10.232;2024-02-23T03:36:36;6.80;99.90
38090;DHT22;23904;52.322;10.232;2024-02-23T03:39:01;6.70;99.90
38090;DHT22;23904;52.322;10.232;2024-02-23T03:41:27;6.70;99.90
38090;DHT22;23904;52.322;10.232;2024-02-23T03:43:52;6.70;99.90
38090;DHT22;23904;52.322;10.232;2024-02-23T03:46:18;6.70;99.90
38090;DHT22;23904;52.322;10.232;2024-02-23T03:48:45;6.80;99.90
38090;DHT22;23904;52.322;10.232;2024-02-23T03:51:11;6.80;99.90
38090;DHT22;23904;52.322;10.232;2024-02-23T03:53:36;6.80;99.90
38090;DHT22;23904;52.322;10.232;2024-02-23T03:56:02;6.80;99.90
38090;DHT22;23904;52.322;10.232;2024-02-23T03:58:28;6.80;99.90
38090;DHT22;23904;52.322;10.232;2024-02-23T04:00:54;6.80;99.90
38090;DHT22;23904;52.322;10.232;2024-02-23T04:03:20;6.80;99.90
38090;DHT22;23904;52.322;10.232;2024-02-23T04:05:45;6.80;99.90
38090;DHT22;23904;52.322;10.232;2024-02-23T04:08:11;6.80;99.90
38090;DHT22;23904;52.322;10.232;2024-02-23T04:10:36;6.80;99.90
38090;DHT22;23904;52.322;10.232;2024-02-23T04:13:02;6.80;99.90
38090;DHT22;23904;52.322;10.232;2024-02-23T04:15:28;6.80;99.90
38090;DHT22;23904;52.322;10.232;2024-02-23T04:17:53;6.80;99.90
38090;DHT22;23904;52.322;10.232;2024-02-23T04:20:19;6.80;99.90
38090;DHT22;23904;52.322;10.232;2024-02-23T04:22:44;6.80;99.90
38090;DHT22;23904;52.322;10.232;2024-02-23T04:25:10;6.80;99.90
38090;DHT22;23904;52.322;10.232;2024-02-23T04:27:36;6.80;99.90
38090;DHT22;23904;52.322;10.232;2024-02-23T04:30:02;6.80;99.90
38090;DHT22;23904;52.322;10.232;2024-02-23T04:32:28;6.70;99.90
38090;DHT22;23904;52.322;10.232;2024-02-23T04:34:53;6.70;99.90
38090;DHT22;23904;52.322;10.232;2024-02-23T04:37:18;6.70;99.90
38090;DHT22;23904;52.322;10.232;2024-02-23T04:39:44;6.60;99.90
38090;DHT22;23904;52.322;10.232;2024-02-23T04:42:10;6.70;99.90
38090;DHT22;23904;52.322;10.232;2024-02-23T04:44:35;6.70;99.90
38090;DHT22;23904;52.322;10.232;2024-02-23T04:47:01;6.70;99.90
38090;DHT22;23904;52.322;10.232;2024-02-23T04:49:27;6.70;99.90
38090;DHT22;23904;52.322;10.232;2024-02-23T04:51:54;6.80;99.90
38090;DHT22;23904;52.322;10.232;2024-02-23T04:54:19;6.80;99.90
38090;DHT22;23904;52.322;10.232;2024-02-23T04:56:46;6.80;99.90
38090;DHT22;23904;52.322;10.232;2024-02-23T04:59:12;6.80;99.90
38090;DHT22;23904;52.322;10.232;2024-02-23T05:01:38;6.80;99.90
38090;DHT22;23904;52.322;10.232;2024-02-23T05:04:04;6.80;99.90
38090;DHT22;23904;52.322;10.232;2024-02-23T05:06:30;6.80;99.90
38090;DHT22;23904;52.322;10.232;2024-02-23T05:08:55;6.80;99.90
38090;DHT22;23904;52.322;10.232;2024-02-23T05:11:21;6.80;99.90
38090;DHT22;23904;52.322;10.232;2024-02-23T05:13:47;6.80;99.90
38090;DHT22;23904;52.322;10.232;2024-02-23T05:16:16;6.80;99.90
38090;DHT22;23904;52.322;10.232;2024-02-23T05:18:41;6.80;99.90
38090;DHT22;23904;52.322;10.232;2024-02-23T05:21:07;6.80;99.90
38090;DHT22;23904;52.322;10.232;2024-02-23T05:23:33;6.90;99.90
38090;DHT22;23904;52.322;10.232;2024-02-23T05:25:58;6.90;99.90
38090;DHT22;23904;52.322;10.232;2024-02-23T05:28:24;6.90;99.90
38090;DHT22;23904;52.322;10.232;2024-02-23T05:30:50;6.80;99.90
38090;DHT22;23904;52.322;10.232;2024-02-23T05:33:16;6.90;99.90
38090;DHT22;23904;52.322;10.232;2024-02-23T05:35:44;6.90;99.90
38090;DHT22;23904;52.322;10.232;2024-02-23T05:38:10;6.90;99.90
38090;DHT22;23904;52.322;10.232;2024-02-23T05:40:35;6.90;99.90
38090;DHT22;23904;52.322;10.232;2024-02-23T05:43:01;6.90;99.90
38090;DHT22;23904;52.322;10.232;2024-02-23T05:45:27;6.90;99.90
38090;DHT22;23904;52.322;10.232;2024-02-23T05:47:52;6.90;99.90
38090;DHT22;23904;52.322;10.232;2024-02-23T05:50:18;6.90;99.90
38090;DHT22;23904;52.322;10.232;2024-02-23T05:52:43;6.90;99.90
38090;DHT22;23904;52.322;10.232;2024-02-23T05:55:09;6.90;99.90
38090;DHT22;23904;52.322;10.232;2024-02-23T05:57:34;6.90;99.90
38090;DHT22;23904;52.322;10.232;2024-02-23T06:00:00;6.90;99.90
38090;DHT22;23904;52.322;10.232;2024-02-23T06:02:26;6.90;99.90
38090;DHT22;23904;52.322;10.232;2024-02-23T06:04:51;6.90;99.90
38090;DHT22;23904;52.322;10.232;2024-02-23T06:07:17;6.90;99.90
38090;DHT22;23904;52.322;10.232;2024-02-23T06:09:45;6.90;99.90
38090;DHT22;23904;52.322;10.232;2024-02-23T06:12:11;6.90;99.90
38090;DHT22;23904;52.322;10.232;2024-02-23T06:14:36;6.90;99.90
38090;DHT22;23904;52.322;10.232;2024-02-23T06:17:02;6.90;99.90
38090;DHT22;23904;52.322;10.232;2024-02-23T06:19:29;6.90;99.90
38090;DHT22;23904;52.322;10.232;2024-02-23T06:21:54;6.90;99.90
38090;DHT22;23904;52.322;10.232;2024-02-23T06:24:20;6.90;99.90
38090;DHT22;23904;52.322;10.232;2024-02-23T06:26:46;6.90;99.90
38090;DHT22;23904;52.322;10.232;2024-02-23T06:29:14;6.90;99.90
38090;DHT22;23904;52.322;10.232;2024-02-23T06:31:40;6.90;99.90
38090;DHT22;23904;52.322;10.232;2024-02-23T06:34:07;6.90;99.90
38090;DHT22;23904;52.322;10.232;2024-02-23T06:36:33;6.90;99.90
38090;DHT22;23904;52.322;10.232;2024-02-23T06:38:59;6.90;99.90
38090;DHT22;23904;52.322;10.232;2024-02-23T06:41:24;6.90;99.90
38090;DHT22;23904;52.322;10.232;2024-02-23T06:43:50;6.90;99.90
38090;DHT22;23904;52.322;10.232;2024-02-23T06:46:19;6.90;99.90
38090;DHT22;23904;52.322;10.232;2024-02-23T06:48:45;6.90;99.90
38090;DHT22;23904;52.322;10.232;2024-02-23T06:51:11;6.90;99.90
38090;DHT22;23904;52.322;10.232;2024-02-23T06:53:37;6.90;99.90
38090;DHT22;23904;52.322;10.232;2024-02-23T06:56:03;6.90;99.90
38090;DHT22;23904;52.322;10.232;2024-02-23T06:58:29;6.90;99.90
38090;DHT22;23904;52.322;10.232;2024-02-23T07:00:54;6.90;99.90
38090;DHT22;23904;52.322;10.232;2024-02-23T07:03:20;7.00;99.90
38090;DHT22;23904;52.322;10.232;2024-02-23T07:05:46;7.00;99.90
38090;DHT22;23904;52.322;10.232;2024-02-23T07:08:12;7.00;99.90
38090;DHT22;23904;52.322;10.232;2024-02-23T07:10:38;7.00;99.90
38090;DHT22;23904;52.322;10.232;2024-02-23T07:13:03;7.00;99.90
38090;DHT22;23904;52.322;10.232;2024-02-23T07:15:29;7.00;99.90
38090;DHT22;23904;52.322;10.232;2024-02-23T07:17:55;7.00;99.90
38090;DHT22;23904;52.322;10.232;2024-02-23T07:20:22;7.00;99.90
38090;DHT22;23904;52.322;10.232;2024-02-23T07:22:47;7.10;99.90
38090;DHT22;23904;52.322;10.232;2024-02-23T07:25:19;7.10;99.90
38090;DHT22;23904;52.322;10.232;2024-02-23T07:27:46;7.20;99.90
38090;DHT22;23904;52.322;10.232;2024-02-23T07:30:14;7.10;99.90
38090;DHT22;23904;52.322;10.232;2024-02-23T07:32:39;7.20;99.90
38090;DHT22;23904;52.322;10.232;2024-02-23T07:35:05;7.20;99.90
38090;DHT22;23904;52.322;10.232;2024-02-23T07:37:31;7.10;99.90
38090;DHT22;23904;52.322;10.232;2024-02-23T07:39:56;7.20;99.90
38090;DHT22;23904;52.322;10.232;2024-02-23T07:42:22;7.20;99.90
38090;DHT22;23904;52.322;10.232;2024-02-23T07:44:47;7.20;99.90
38090;DHT22;23904;52.322;10.232;2024-02-23T07:47:13;7.20;99.90
38090;DHT22;23904;52.322;10.232;2024-02-23T07:49:38;7.20;99.90
38090;DHT22;23904;52.322;10.232;2024-02-23T07:52:06;7.10;99.90
38090;DHT22;23904;52.322;10.232;2024-02-23T07:54:32;7.20;99.90
38090;DHT22;23904;52.322;10.232;2024-02-23T07:56:58;7.20;99.90
38090;DHT22;23904;52.322;10.232;2024-02-23T07:59:24;7.30;99.90
38090;DHT22;23904;52.322;10.232;2024-02-23T08:01:50;7.40;99.90
38090;DHT22;23904;52.322;10.232;2024-02-23T08:04:15;7.30;99.90
38090;DHT22;23904;52.322;10.232;2024-02-23T08:06:41;7.50;99.90
38090;DHT22;23904;52.322;10.232;2024-02-23T08:09:08;7.50;99.90
38090;DHT22;23904;52.322;10.232;2024-02-23T08:11:34;7.40;99.90
38090;DHT22;23904;52.322;10.232;2024-02-23T08:14:00;7.40;99.90
38090;DHT22;23904;52.322;10.232;2024-02-23T08:16:26;7.40;99.90
38090;DHT22;23904;52.322;10.232;2024-02-23T08:18:52;7.40;99.90
38090;DHT22;23904;52.322;10.232;2024-02-23T08:21:17;7.30;99.90
38090;DHT22;23904;52.322;10.232;2024-02-23T08:23:44;7.30;99.90
38090;DHT22;23904;52.322;10.232;2024-02-23T08:26:10;7.30;99.90
38090;DHT22;23904;52.322;10.232;2024-02-23T08:28:35;7.30;99.90
38090;DHT22;23904;52.322;10.232;2024-02-23T08:31:01;7.40;99.90
38090;DHT22;23904;52.322;10.232;2024-02-23T08:33:27;7.40;99.90
38090;DHT22;23904;52.322;10.232;2024-02-23T08:35:52;7.40;99.90
38090;DHT22;23904;52.322;10.232;2024-02-23T08:38:18;7.40;99.90
38090;DHT22;23904;52.322;10.232;2024-02-23T08:40:44;7.50;99.90
38090;DHT22;23904;52.322;10.232;2024-02-23T08:43:10;7.50;99.90
38090;DHT22;23904;52.322;10.232;2024-02-23T08:45:36;7.50;99.90
38090;DHT22;23904;52.322;10.232;2024-02-23T08:48:02;7.60;99.90
38090;DHT22;23904;52.322;10.232;2024-02-23T08:50:28;7.70;99.90
38090;DHT22;23904;52.322;10.232;2024-02-23T08:52:54;7.80;99.90
38090;DHT22;23904;52.322;10.232;2024-02-23T08:55:20;8.00;99.90
38090;DHT22;23904;52.322;10.232;2024-02-23T08:57:46;8.20;99.90
38090;DHT22;23904;52.322;10.232;2024-02-23T09:00:13;8.20;99.90
38090;DHT22;23904;52.322;10.232;2024-02-23T09:02:40;8.10;99.90
38090;DHT22;23904;52.322;10.232;2024-02-23T09:05:08;8.00;99.90
38090;DHT22;23904;52.322;10.232;2024-02-23T09:07:34;8.00;99.90
38090;DHT22;23904;52.322;10.232;2024-02-23T09:09:59;7.90;99.90
38090;DHT22;23904;52.322;10.232;2024-02-23T09:12:25;8.00;99.90
38090;DHT22;23904;52.322;10.232;2024-02-23T09:14:51;8.00;99.90
38090;DHT22;23904;52.322;10.232;2024-02-23T09:17:17;8.00;99.90
38090;DHT22;23904;52.322;10.232;2024-02-23T09:19:44;8.30;99.90
38090;DHT22;23904;52.322;10.232;2024-02-23T09:22:10;8.80;99.90
38090;DHT22;23904;52.322;10.232;2024-02-23T09:24:39;10.00;99.90
38090;DHT22;23904;52.322;10.232;2024-02-23T09:27:06;11.10;99.90
38090;DHT22;23904;52.322;10.232;2024-02-23T09:29:32;11.70;99.30
38090;DHT22;23904;52.322;10.232;2024-02-23T09:31:58;11.70;98.80
38090;DHT22;23904;52.322;10.232;2024-02-23T09:34:24;11.20;99.30
38090;DHT22;23904;52.322;10.232;2024-02-23T09:36:50;11.10;99.70
38090;DHT22;23904;52.322;10.232;2024-02-23T09:39:16;10.90;99.90
38090;DHT22;23904;52.322;10.232;2024-02-23T09:41:42;10.30;99.90
38090;DHT22;23904;52.322;10.232;2024-02-23T09:44:08;10.00;99.90
38090;DHT22;23904;52.322;10.232;2024-02-23T09:46:36;9.60;99.90
38090;DHT22;23904;52.322;10.232;2024-02-23T09:49:03;9.30;99.90
38090;DHT22;23904;52.322;10.232;2024-02-23T09:51:29;9.10;99.90
38090;DHT22;23904;52.322;10.232;2024-02-23T09:53:56;9.00;99.90
38090;DHT22;23904;52.322;10.232;2024-02-23T09:56:26;8.90;99.90
38090;DHT22;23904;52.322;10.232;2024-02-23T09:58:53;8.90;99.90
38090;DHT22;23904;52.322;10.232;2024-02-23T10:01:27;9.00;99.90
38090;DHT22;23904;52.322;10.232;2024-02-23T10:03:58;9.10;99.90
38090;DHT22;23904;52.322;10.232;2024-02-23T10:06:25;9.00;99.90
38090;DHT22;23904;52.322;10.232;2024-02-23T10:08:51;9.00;99.90
38090;DHT22;23904;52.322;10.232;2024-02-23T10:11:20;9.10;99.90
38090;DHT22;23904;52.322;10.232;2024-02-23T10:13:48;9.30;99.90
38090;DHT22;23904;52.322;10.232;2024-02-23T10:16:20;9.60;99.90
38090;DHT22;23904;52.322;10.232;2024-02-23T10:18:47;10.30;99.90
38090;DHT22;23904;52.322;10.232;2024-02-23T10:21:16;10.60;99.90
38090;DHT22;23904;52.322;10.232;2024-02-23T10:23:44;11.20;99.90
38090;DHT22;23904;52.322;10.232;2024-02-23T10:26:10;12.20;99.80
38090;DHT22;23904;52.322;10.232;2024-02-23T10:28:37;12.80;98.20
38090;DHT22;23904;52.322;10.232;2024-02-23T10:31:04;13.50;96.20
38090;DHT22;23904;52.322;10.232;2024-02-23T10:33:31;14.20;94.10
38090;DHT22;23904;52.322;10.232;2024-02-23T10:35:58;14.90;92.20
38090;DHT22;23904;52.322;10.232;2024-02-23T10:38:26;15.90;91.10
38090;DHT22;23904;52.322;10.232;2024-02-23T10:40:55;16.90;87.30
38090;DHT22;23904;52.322;10.232;2024-02-23T10:43:30;16.00;87.30
38090;DHT22;23904;52.322;10.232;2024-02-23T10:46:00;16.20;86.40
38090;DHT22;23904;52.322;10.232;2024-02-23T10:48:28;16.10;85.40
38090;DHT22;23904;52.322;10.232;2024-02-23T10:50:55;16.00;84.90
38090;DHT22;23904;52.322;10.232;2024-02-23T10:53:23;15.70;84.10
38090;DHT22;23904;52.322;10.232;2024-02-23T10:55:53;15.20;87.40
38090;DHT22;23904;52.322;10.232;2024-02-23T10:58:22;14.70;90.00
38090;DHT22;23904;52.322;10.232;2024-02-23T11:00:48;15.00;89.80
38090;DHT22;23904;52.322;10.232;2024-02-23T11:03:14;15.30;86.70
38090;DHT22;23904;52.322;10.232;2024-02-23T11:05:41;15.10;87.50
38090;DHT22;23904;52.322;10.232;2024-02-23T11:08:06;15.40;86.00
38090;DHT22;23904;52.322;10.232;2024-02-23T11:10:41;15.80;86.00
38090;DHT22;23904;52.322;10.232;2024-02-23T11:13:30;15.90;85.50
38090;DHT22;23904;52.322;10.232;2024-02-23T11:16:02;15.20;84.10
38090;DHT22;23904;52.322;10.232;2024-02-23T11:18:29;15.00;86.00
38090;DHT22;23904;52.322;10.232;2024-02-23T11:20:56;14.70;88.00
38090;DHT22;23904;52.322;10.232;2024-02-23T11:23:24;14.60;88.10
38090;DHT22;23904;52.322;10.232;2024-02-23T11:28:28;13.90;89.10
38090;DHT22;23904;52.322;10.232;2024-02-23T11:30:54;13.30;90.20
38090;DHT22;23904;52.322;10.232;2024-02-23T11:33:26;12.60;91.70
38090;DHT22;23904;52.322;10.232;2024-02-23T11:35:52;12.50;92.10
38090;DHT22;23904;52.322;10.232;2024-02-23T11:38:18;12.50;92.00
38090;DHT22;23904;52.322;10.232;2024-02-23T11:40:47;12.30;92.10
38090;DHT22;23904;52.322;10.232;2024-02-23T11:43:13;11.90;92.70
38090;DHT22;23904;52.322;10.232;2024-02-23T11:45:40;12.20;92.90
38090;DHT22;23904;52.322;10.232;2024-02-23T11:48:06;13.10;91.70
38090;DHT22;23904;52.322;10.232;2024-02-23T11:50:33;13.40;89.80
38090;DHT22;23904;52.322;10.232;2024-02-23T11:52:59;13.50;89.60
38090;DHT22;23904;52.322;10.232;2024-02-23T11:55:26;14.00;87.90
38090;DHT22;23904;52.322;10.232;2024-02-23T11:57:52;14.20;87.10
38090;DHT22;23904;52.322;10.232;2024-02-23T12:00:18;14.90;85.60
38090;DHT22;23904;52.322;10.232;2024-02-23T12:02:44;14.60;84.70
38090;DHT22;23904;52.322;10.232;2024-02-23T12:05:14;13.80;85.10
38090;DHT22;23904;52.322;10.232;2024-02-23T12:07:40;13.20;88.50
38090;DHT22;23904;52.322;10.232;2024-02-23T12:10:06;13.20;88.60
38090;DHT22;23904;52.322;10.232;2024-02-23T12:12:32;12.90;88.90
38090;DHT22;23904;52.322;10.232;2024-02-23T12:14:58;13.80;87.50
38090;DHT22;23904;52.322;10.232;2024-02-23T12:17:24;13.90;85.40
38090;DHT22;23904;52.322;10.232;2024-02-23T12:19:58;13.50;85.60
38090;DHT22;23904;52.322;10.232;2024-02-23T12:22:25;13.00;88.30
38090;DHT22;23904;52.322;10.232;2024-02-23T12:24:50;12.70;90.10
38090;DHT22;23904;52.322;10.232;2024-02-23T12:27:19;12.10;91.00
38090;DHT22;23904;52.322;10.232;2024-02-23T12:29:53;11.70;91.40
38090;DHT22;23904;52.322;10.232;2024-02-23T12:32:22;11.60;91.70
38090;DHT22;23904;52.322;10.232;2024-02-23T12:34:48;11.70;92.70
38090;DHT22;23904;52.322;10.232;2024-02-23T12:37:17;12.10;91.90
38090;DHT22;23904;52.322;10.232;2024-02-23T12:39:44;12.50;90.80
38090;DHT22;23904;52.322;10.232;2024-02-23T12:42:09;12.50;90.70
38090;DHT22;23904;52.322;10.232;2024-02-23T12:44:35;12.40;91.10
38090;DHT22;23904;52.322;10.232;2024-02-23T12:47:01;12.20;92.10
38090;DHT22;23904;52.322;10.232;2024-02-23T12:49:26;12.00;91.80
38090;DHT22;23904;52.322;10.232;2024-02-23T12:51:52;11.80;91.60
38090;DHT22;23904;52.322;10.232;2024-02-23T12:54:18;11.60;92.20
38090;DHT22;23904;52.322;10.232;2024-02-23T12:56:43;11.30;92.70
38090;DHT22;23904;52.322;10.232;2024-02-23T12:59:09;11.40;94.10
38090;DHT22;23904;52.322;10.232;2024-02-23T13:01:35;11.90;91.90
38090;DHT22;23904;52.322;10.232;2024-02-23T13:04:02;11.90;92.00
38090;DHT22;23904;52.322;10.232;2024-02-23T13:06:28;11.90;92.40
38090;DHT22;23904;52.322;10.232;2024-02-23T13:08:53;11.70;92.40
38090;DHT22;23904;52.322;10.232;2024-02-23T13:11:19;11.80;92.10
38090;DHT22;23904;52.322;10.232;2024-02-23T13:13:44;11.90;92.30
38090;DHT22;23904;52.322;10.232;2024-02-23T13:16:10;11.90;91.90
38090;DHT22;23904;52.322;10.232;2024-02-23T13:18:36;11.90;92.10
38090;DHT22;23904;52.322;10.232;2024-02-23T13:21:01;11.80;92.50
38090;DHT22;23904;52.322;10.232;2024-02-23T13:23:28;11.90;92.50
38090;DHT22;23904;52.322;10.232;2024-02-23T13:25:54;11.80;93.00
38090;DHT22;23904;52.322;10.232;2024-02-23T13:28:19;11.70;92.80
38090;DHT22;23904;52.322;10.232;2024-02-23T13:30:45;11.60;92.80
38090;DHT22;23904;52.322;10.232;2024-02-23T13:33:11;11.40;92.90
38090;DHT22;23904;52.322;10.232;2024-02-23T13:35:36;11.20;93.30
38090;DHT22;23904;52.322;10.232;2024-02-23T13:38:02;11.00;93.90
38090;DHT22;23904;52.322;10.232;2024-02-23T13:40:31;10.80;94.70
38090;DHT22;23904;52.322;10.232;2024-02-23T13:42:59;10.80;94.70
38090;DHT22;23904;52.322;10.232;2024-02-23T13:45:25;10.80;95.00
38090;DHT22;23904;52.322;10.232;2024-02-23T13:47:58;10.60;96.00
38090;DHT22;23904;52.322;10.232;2024-02-23T13:50:25;10.70;96.00
38090;DHT22;23904;52.322;10.232;2024-02-23T13:52:51;10.60;95.90
38090;DHT22;23904;52.322;10.232;2024-02-23T13:55:17;10.50;95.70
38090;DHT22;23904;52.322;10.232;2024-02-23T13:57:44;10.30;96.00
38090;DHT22;23904;52.322;10.232;2024-02-23T14:00:10;10.40;96.20
38090;DHT22;23904;52.322;10.232;2024-02-23T14:02:38;10.50;96.40
38090;DHT22;23904;52.322;10.232;2024-02-23T14:05:06;10.40;96.20
38090;DHT22;23904;52.322;10.232;2024-02-23T14:07:33;10.30;96.70
38090;DHT22;23904;52.322;10.232;2024-02-23T14:09:59;10.30;96.90
38090;DHT22;23904;52.322;10.232;2024-02-23T14:12:24;10.30;96.80
38090;DHT22;23904;52.322;10.232;2024-02-23T14:14:50;10.40;97.10
38090;DHT22;23904;52.322;10.232;2024-02-23T14:17:16;10.40;97.10
38090;DHT22;23904;52.322;10.232;2024-02-23T14:19:42;10.30;97.00
38090;DHT22;23904;52.322;10.232;2024-02-23T14:22:07;10.30;97.70
38090;DHT22;23904;52.322;10.232;2024-02-23T14:24:33;10.40;97.60
38090;DHT22;23904;52.322;10.232;2024-02-23T14:26:58;10.30;97.40
38090;DHT22;23904;52.322;10.232;2024-02-23T14:29:24;10.40;97.70
38090;DHT22;23904;52.322;10.232;2024-02-23T14:31:49;10.30;97.80
38090;DHT22;23904;52.322;10.232;2024-02-23T14:34:15;10.40;97.50
38090;DHT22;23904;52.322;10.232;2024-02-23T14:36:40;10.30;97.80
38090;DHT22;23904;52.322;10.232;2024-02-23T14:39:06;10.40;98.00
38090;DHT22;23904;52.322;10.232;2024-02-23T14:41:32;10.30;98.10
38090;DHT22;23904;52.322;10.232;2024-02-23T14:43:57;10.30;98.10
38090;DHT22;23904;52.322;10.232;2024-02-23T14:46:23;10.30;97.80
38090;DHT22;23904;52.322;10.232;2024-02-23T14:48:48;10.20;97.60
38090;DHT22;23904;52.322;10.232;2024-02-23T14:51:15;10.10;97.70
38090;DHT22;23904;52.322;10.232;2024-02-23T14:53:41;10.10;97.90
38090;DHT22;23904;52.322;10.232;2024-02-23T14:56:06;10.20;98.10
38090;DHT22;23904;52.322;10.232;2024-02-23T14:58:32;10.20;97.40
38090;DHT22;23904;52.322;10.232;2024-02-23T15:00:58;10.00;98.00
38090;DHT22;23904;52.322;10.232;2024-02-23T15:03:23;10.00;97.80
38090;DHT22;23904;52.322;10.232;2024-02-23T15:05:49;9.90;98.00
38090;DHT22;23904;52.322;10.232;2024-02-23T15:08:15;10.00;98.00
38090;DHT22;23904;52.322;10.232;2024-02-23T15:10:40;9.90;97.80
38090;DHT22;23904;52.322;10.232;2024-02-23T15:13:06;9.90;97.90
38090;DHT22;23904;52.322;10.232;2024-02-23T15:15:32;9.80;98.10
38090;DHT22;23904;52.322;10.232;2024-02-23T15:17:57;9.80;98.10
38090;DHT22;23904;52.322;10.232;2024-02-23T15:20:23;9.80;98.30
38090;DHT22;23904;52.322;10.232;2024-02-23T15:22:48;9.80;98.10